KIKK/IKK METAR and TAF weather

Enter ICAO airport designator
Station Type Date Time Source
KIKK METAR 2021/07/26 13:39 UTC NOAA

KIKK 261339Z AUTO 00000KT 10SM CLR 25/22 A3005 RMK AO2 PWINO


Station Type Date Time Source
KIKK Decoded METAR 2021/07/26 13:39 UTC NOAA

Kankakee, Greater Kankakee Airport, IL, United States (KIKK) 41-04-17N 087-50-47W
Jul 26, 2021 - 09:39 AM EDT / 2021.07.26 1339 UTC
Wind: Calm:0
Visibility: 10 mile(s):0
Sky conditions: clear
Temperature: 77 F (25 C)
Dew Point: 71 F (22 C)
Relative Humidity: 83%
Pressure (altimeter): 30.05 in. Hg (1017 hPa)
ob: KIKK 261339Z AUTO 00000KT 10SM CLR 25/22 A3005 RMK AO2 PWINO
cycle: 13

Station Type Date Time Source
KIKK TAF UTC NOAA

Error!

Example: see airport list